Time;durP1;ratioP1;P1;durP2;ratioP2;P2;SDS_P1;SDS_P2;PMS_P1;PMS_P2;Temp;Humidity;BMP_temperature;BMP_pressure;BME280_temperature;BME280_humidity;BME280_pressure;Samples;Min_cycle;Max_cycle;Signal;HPM_P1;HPM_P2
2023/11/21 00:01:58;;;;;;;;;;;;;;;;;;5027964;28;6072;-60
2023/11/21 00:04:23;;;;;;;;;;;;;;;;;;5025094;28;4722;-63
2023/11/21 00:06:48;;;;;;;;;;;;;;;;;;5025918;28;4960;-59
2023/11/21 00:09:17;;;;;;;;;;;;;;;;;;5025177;28;5464;-62
2023/11/21 00:11:44;;;;;;;;;;;;;;;;;;5025591;28;1220;-60
2023/11/21 00:14:10;;;;;;;;;;;;;;;;;;5024465;28;4984;-61
2023/11/21 00:16:36;;;;;;;;;;;;;;;;;;5046445;28;5628;-60
2023/11/21 00:19:02;;;;;;;;;;;;;;;;;;5047025;28;4649;-60
2023/11/21 00:21:27;;;;;;;;;;;;;;;;;;5056048;28;5093;-60
2023/11/21 00:23:53;;;;;;;;;;;;;;;;;;5051788;28;1266;-61
2023/11/21 00:26:18;;;;;;;;;;;;;;;;;;5045582;28;5021;-60
2023/11/21 00:28:43;;;;;;;;;;;;;;;;;;5062452;28;4681;-60
2023/11/21 00:31:09;;;;;;;;;;;;;;;;;;5041573;28;5651;-60
2023/11/21 00:33:34;;;;;;;;;;;;;;;;;;5046140;28;4625;-60
2023/11/21 00:36:00;;;;;;;;;;;;;;;;;;5044214;28;1067;-60
2023/11/21 00:38:25;;;;;;;;;;;;;;;;;;5033845;28;5225;-60
2023/11/21 00:40:52;;;;;;;;;;;;;;;;;;5046922;28;4972;-60
2023/11/21 00:43:18;;;;;;;;;;;;;;;;;;5033356;28;5005;-60
2023/11/21 00:45:44;;;;;;;;;;;;;;;;;;5031207;28;5038;-60
2023/11/21 00:48:09;;;;;;;;;;;;;;;;;;5073323;28;5033;-59
2023/11/21 00:50:34;;;;;;;;;;;;;;;;;;5049806;28;1527;-60
2023/11/21 00:53:00;;;;;;;;;;;;;;;;;;5047677;28;4502;-62
2023/11/21 00:55:26;;;;;;;;;;;;;;;;;;5044894;28;5020;-65
2023/11/21 00:57:51;;;;;;;;;;;;;;;;;;5045533;28;5451;-60
2023/11/21 01:00:17;;;;;;;;;;;;;;;;;;5047682;28;4498;-65
2023/11/21 01:02:47;;;;;;;;;;;;;;;;;;5067699;28;1049;-59
2023/11/21 01:05:13;;;;;;;;;;;;;;;;;;5046466;28;4402;-60
2023/11/21 01:07:39;;;;;;;;;;;;;;;;;;5054840;28;4918;-60
2023/11/21 01:10:07;;;;;;;;;;;;;;;;;;5049725;28;4700;-60
2023/11/21 01:12:32;;;;;;;;;;;;;;;;;;5048110;28;4653;-60
2023/11/21 01:15:00;;;;;;;;;;;;;;;;;;5051046;28;1068;-60
2023/11/21 01:17:25;;;;;;;;;;;;;;;;;;5055816;28;4860;-60
2023/11/21 01:19:51;;;;;;;;;;;;;;;;;;5055619;28;5114;-63
2023/11/21 01:22:16;;;;;;;;;;;;;;;;;;5061170;28;4610;-62
2023/11/21 01:24:41;;;;;;;;;;;;;;;;;;5057959;28;5076;-60
2023/11/21 01:27:06;;;;;;;;;;;;;;;;;;5056632;28;4994;-61
2023/11/21 01:29:32;;;;;;;;;;;;;;;;;;5064635;28;4768;-60
2023/11/21 01:31:57;;;;;;;;;;;;;;;;;;5042623;28;5679;-61
2023/11/21 01:34:23;;;;;;;;;;;;;;;;;;5058624;28;4462;-60
2023/11/21 01:36:48;;;;;;;;;;;;;;;;;;5045418;28;5021;-60
2023/11/21 01:39:15;;;;;;;;;;;;;;;;;;5062659;28;4999;-61
2023/11/21 01:41:41;;;;;;;;;;;;;;;;;;5058708;28;1981;-61
2023/11/21 01:44:09;;;;;;;;;;;;;;;;;;5042423;28;5256;-60
2023/11/21 01:46:34;;;;;;;;;;;;;;;;;;5076168;28;5792;-60
2023/11/21 01:49:00;;;;;;;;;;;;;;;;;;5060848;28;4429;-60
2023/11/21 01:51:26;;;;;;;;;;;;;;;;;;5057147;28;5076;-60
2023/11/21 01:53:51;;;;;;;;;;;;;;;;;;5051687;28;1168;-61
2023/11/21 01:56:17;;;;;;;;;;;;;;;;;;5030239;28;5045;-60
2023/11/21 01:58:42;;;;;;;;;;;;;;;;;;5068468;28;5043;-62
2023/11/21 02:01:08;;;;;;;;;;;;;;;;;;5063508;28;5934;-60
2023/11/21 02:03:34;;;;;;;;;;;;;;;;;;5051449;28;4433;-60
2023/11/21 02:06:00;;;;;;;;;;;;;;;;;;5054179;28;2055;-61
2023/11/21 02:08:26;;;;;;;;;;;;;;;;;;5062399;28;5025;-61
2023/11/21 02:10:52;;;;;;;;;;;;;;;;;;5032624;28;4531;-61
2023/11/21 02:13:17;;;;;;;;;;;;;;;;;;5055835;28;5064;-63
2023/11/21 02:15:42;;;;;;;;;;;;;;;;;;5057807;28;4636;-61
2023/11/21 02:18:09;;;;;;;;;;;;;;;;;;5063093;28;4492;-61
2023/11/21 02:20:37;;;;;;;;;;;;;;;;;;5037602;28;1938;-61
2023/11/21 02:23:02;;;;;;;;;;;;;;;;;;5054991;28;5073;-61
2023/11/21 02:25:31;;;;;;;;;;;;;;;;;;5060678;28;5032;-63
2023/11/21 02:27:57;;;;;;;;;;;;;;;;;;5068926;28;5099;-62
2023/11/21 02:30:22;;;;;;;;;;;;;;;;;;5053320;28;4978;-63
2023/11/21 02:32:54;;;;;;;;;;;;;;;;;;5048705;28;1327;-60
2023/11/21 02:35:26;;;;;;;;;;;;;;;;;;5061579;28;4429;-60
2023/11/21 02:37:51;;;;;;;;;;;;;;;;;;5064872;28;4726;-59
2023/11/21 02:40:17;;;;;;;;;;;;;;;;;;5061168;28;5041;-59
2023/11/21 02:42:52;;;;;;;;;;;;;;;;;;5064287;28;4957;-64
2023/11/21 02:45:18;;;;;;;;;;;;;;;;;;5054145;28;5213;-62
2023/11/21 02:47:44;;;;;;;;;;;;;;;;;;5054223;28;1155;-59
2023/11/21 02:50:09;;;;;;;;;;;;;;;;;;5037494;28;4992;-60
2023/11/21 02:52:35;;;;;;;;;;;;;;;;;;5070150;28;5053;-60
2023/11/21 02:55:01;;;;;;;;;;;;;;;;;;5040989;28;4662;-59
2023/11/21 02:57:26;;;;;;;;;;;;;;;;;;5049748;28;5043;-59
2023/11/21 02:59:51;;;;;;;;;;;;;;;;;;5057324;28;1934;-62
2023/11/21 03:02:18;;;;;;;;;;;;;;;;;;5047372;28;4804;-61
2023/11/21 03:04:43;;;;;;;;;;;;;;;;;;5046867;28;5001;-62
2023/11/21 03:07:09;;;;;;;;;;;;;;;;;;5047556;28;5056;-61
2023/11/21 03:09:35;;;;;;;;;;;;;;;;;;5052445;28;4666;-61
2023/11/21 03:12:00;;;;;;;;;;;;;;;;;;5043997;28;1109;-59
2023/11/21 03:14:26;;;;;;;;;;;;;;;;;;5048353;28;4427;-65
2023/11/21 03:16:53;;;;;;;;;;;;;;;;;;5047639;28;5300;-61
2023/11/21 03:19:18;;;;;;;;;;;;;;;;;;5057236;28;4685;-61
2023/11/21 03:21:43;;;;;;;;;;;;;;;;;;5053387;28;4925;-59
2023/11/21 03:24:08;;;;;;;;;;;;;;;;;;5046964;28;4865;-62
2023/11/21 03:26:34;;;;;;;;;;;;;;;;;;5051490;28;1231;-62
2023/11/21 03:28:59;;;;;;;;;;;;;;;;;;5052768;28;5027;-62
2023/11/21 03:31:25;;;;;;;;;;;;;;;;;;5060540;28;4855;-61
2023/11/21 03:33:50;;;;;;;;;;;;;;;;;;5052068;28;4556;-61
2023/11/21 03:36:16;;;;;;;;;;;;;;;;;;5054059;28;5085;-61
2023/11/21 03:38:41;;;;;;;;;;;;;;;;;;5063896;28;1033;-61
2023/11/21 03:41:07;;;;;;;;;;;;;;;;;;5052107;28;4458;-61
2023/11/21 03:43:32;;;;;;;;;;;;;;;;;;5031619;28;5248;-61
2023/11/21 03:45:57;;;;;;;;;;;;;;;;;;5048239;28;4880;-61
2023/11/21 03:48:23;;;;;;;;;;;;;;;;;;5045109;28;5069;-61
2023/11/21 03:50:48;;;;;;;;;;;;;;;;;;5053387;28;1571;-61
2023/11/21 03:53:14;;;;;;;;;;;;;;;;;;5028674;28;5109;-61
2023/11/21 03:55:46;;;;;;;;;;;;;;;;;;5059681;28;4935;-61
2023/11/21 03:58:11;;;;;;;;;;;;;;;;;;5046587;28;4989;-59
2023/11/21 04:00:36;;;;;;;;;;;;;;;;;;5044882;28;4937;-59
2023/11/21 04:03:02;;;;;;;;;;;;;;;;;;5045512;28;1166;-60
2023/11/21 04:05:27;;;;;;;;;;;;;;;;;;5045443;28;4960;-60
2023/11/21 04:07:53;;;;;;;;;;;;;;;;;;5028225;28;5021;-60
2023/11/21 04:10:18;;;;;;;;;;;;;;;;;;5050446;28;4480;-60
2023/11/21 04:12:44;;;;;;;;;;;;;;;;;;5059365;28;5013;-59
2023/11/21 04:15:09;;;;;;;;;;;;;;;;;;5063908;28;4961;-60
2023/11/21 04:17:36;;;;;;;;;;;;;;;;;;5052401;28;1168;-60
2023/11/21 04:20:01;;;;;;;;;;;;;;;;;;5045359;28;5024;-64
2023/11/21 04:22:27;;;;;;;;;;;;;;;;;;5056334;28;4957;-60
2023/11/21 04:24:52;;;;;;;;;;;;;;;;;;5054554;28;4584;-59
2023/11/21 04:27:18;;;;;;;;;;;;;;;;;;5046688;28;4647;-62
2023/11/21 04:29:43;;;;;;;;;;;;;;;;;;5045803;28;5209;-61
2023/11/21 04:32:08;;;;;;;;;;;;;;;;;;5046481;28;4989;-60
2023/11/21 04:34:34;;;;;;;;;;;;;;;;;;5049574;28;5183;-64
2023/11/21 04:36:59;;;;;;;;;;;;;;;;;;5044127;28;4999;-60
2023/11/21 04:39:25;;;;;;;;;;;;;;;;;;5047305;28;4541;-63
2023/11/21 04:41:56;;;;;;;;;;;;;;;;;;5028040;28;1903;-66
2023/11/21 04:44:22;;;;;;;;;;;;;;;;;;5045389;28;4608;-61
2023/11/21 04:46:47;;;;;;;;;;;;;;;;;;5046496;28;5811;-61
2023/11/21 04:49:12;;;;;;;;;;;;;;;;;;5044139;28;5151;-60
2023/11/21 04:51:37;;;;;;;;;;;;;;;;;;5044090;28;4678;-61
2023/11/21 04:54:03;;;;;;;;;;;;;;;;;;5045409;28;1094;-61
2023/11/21 04:56:28;;;;;;;;;;;;;;;;;;5044465;28;4674;-62
2023/11/21 04:58:54;;;;;;;;;;;;;;;;;;5062824;28;4511;-60
2023/11/21 05:01:19;;;;;;;;;;;;;;;;;;5037000;28;5149;-61
2023/11/21 05:03:45;;;;;;;;;;;;;;;;;;5066439;28;4609;-61
2023/11/21 05:06:10;;;;;;;;;;;;;;;;;;5051237;28;5146;-62
2023/11/21 05:08:37;;;;;;;;;;;;;;;;;;5044639;28;1147;-64
2023/11/21 05:11:02;;;;;;;;;;;;;;;;;;5030583;28;5129;-61
2023/11/21 05:13:27;;;;;;;;;;;;;;;;;;5051087;28;5066;-61
2023/11/21 05:15:57;;;;;;;;;;;;;;;;;;5061495;28;4881;-61
2023/11/21 05:18:22;;;;;;;;;;;;;;;;;;5063028;28;4527;-61
2023/11/21 05:20:47;;;;;;;;;;;;;;;;;;5048504;28;1926;-61
2023/11/21 05:23:13;;;;;;;;;;;;;;;;;;5047885;28;5029;-61
2023/11/21 05:25:43;;;;;;;;;;;;;;;;;;5062385;28;4606;-60
2023/11/21 05:28:08;;;;;;;;;;;;;;;;;;5065074;28;5087;-61
2023/11/21 05:30:33;;;;;;;;;;;;;;;;;;5047076;28;5049;-59
2023/11/21 05:32:58;;;;;;;;;;;;;;;;;;5039658;28;1132;-63
2023/11/21 05:35:24;;;;;;;;;;;;;;;;;;5052168;28;4461;-61
2023/11/21 05:37:49;;;;;;;;;;;;;;;;;;5053453;28;4898;-60
2023/11/21 05:40:15;;;;;;;;;;;;;;;;;;5053335;28;5122;-61
2023/11/21 05:45:43;;;;;;;;;;;;;;;;;;5053259;28;4706;-60
2023/11/21 05:48:08;;;;;;;;;;;;;;;;;;5053387;28;4426;-60
2023/11/21 05:50:33;;;;;;;;;;;;;;;;;;5020448;28;1731;-60
2023/11/21 05:53:00;;;;;;;;;;;;;;;;;;5057261;28;4891;-60
2023/11/21 05:55:39;;;;;;;;;;;;;;;;;;5057447;28;4900;-61
2023/11/21 06:07:12;;;;;;;;;;;;;;;;;;5056867;28;5100;-61
2023/11/21 06:09:37;;;;;;;;;;;;;;;;;;5056563;28;5225;-60
2023/11/21 06:12:03;;;;;;;;;;;;;;;;;;5055556;28;1217;-61
2023/11/21 06:14:29;;;;;;;;;;;;;;;;;;5054992;28;4653;-61
2023/11/21 06:16:57;;;;;;;;;;;;;;;;;;5055556;28;5043;-60
2023/11/21 06:19:22;;;;;;;;;;;;;;;;;;5038508;28;4841;-60
2023/11/21 06:21:48;;;;;;;;;;;;;;;;;;5056242;28;4949;-61
2023/11/21 06:24:15;;;;;;;;;;;;;;;;;;5056595;28;5034;-61
2023/11/21 06:26:41;;;;;;;;;;;;;;;;;;5071875;28;1105;-62
2023/11/21 06:29:06;;;;;;;;;;;;;;;;;;5073629;28;4702;-61
2023/11/21 06:31:32;;;;;;;;;;;;;;;;;;5057983;28;4703;-61
2023/11/21 06:33:59;;;;;;;;;;;;;;;;;;5066759;28;5046;-60
2023/11/21 06:36:26;;;;;;;;;;;;;;;;;;5051934;28;4617;-61
2023/11/21 06:38:51;;;;;;;;;;;;;;;;;;5043688;28;3489;-62
2023/11/21 06:41:17;;;;;;;;;;;;;;;;;;5060466;28;4909;-61
2023/11/21 06:43:46;;;;;;;;;;;;;;;;;;5030793;28;4537;-61
2023/11/21 06:46:11;;;;;;;;;;;;;;;;;;5045072;28;4887;-64
2023/11/21 06:48:38;;;;;;;;;;;;;;;;;;5045852;28;4516;-53
2023/11/21 06:51:03;;;;;;;;;;;;;;;;;;5029763;28;2899;-56
2023/11/21 06:53:29;;;;;;;;;;;;;;;;;;5047130;28;4944;-53
2023/11/21 06:55:54;;;;;;;;;;;;;;;;;;5042078;28;4592;-56
2023/11/21 06:58:19;;;;;;;;;;;;;;;;;;5057386;28;5133;-51
2023/11/21 07:00:46;;;;;;;;;;;;;;;;;;5052383;28;5027;-53
2023/11/21 07:03:12;;;;;;;;;;;;;;;;;;5043844;28;5038;-54
2023/11/21 07:05:37;;;;;;;;;;;;;;;;;;5069413;28;1330;-56
2023/11/21 07:08:04;;;;;;;;;;;;;;;;;;5034861;28;4870;-52
2023/11/21 07:10:29;;;;;;;;;;;;;;;;;;5043319;28;5095;-53
2023/11/21 07:12:55;;;;;;;;;;;;;;;;;;5044901;28;4981;-55
2023/11/21 07:15:21;;;;;;;;;;;;;;;;;;5048846;28;5066;-54
2023/11/21 07:17:48;;;;;;;;;;;;;;;;;;5049304;28;1233;-55
2023/11/21 07:20:13;;;;;;;;;;;;;;;;;;5029421;28;5102;-53
2023/11/21 07:22:39;;;;;;;;;;;;;;;;;;5059652;28;4977;-53
2023/11/21 07:25:04;;;;;;;;;;;;;;;;;;5067599;28;5043;-52
2023/11/21 07:27:30;;;;;;;;;;;;;;;;;;5058619;28;4634;-53
2023/11/21 07:29:55;;;;;;;;;;;;;;;;;;5048186;28;4585;-53
2023/11/21 07:32:20;;;;;;;;;;;;;;;;;;5046509;28;4987;-53
2023/11/21 07:34:46;;;;;;;;;;;;;;;;;;5058545;28;5338;-54
2023/11/21 07:37:11;;;;;;;;;;;;;;;;;;5067495;28;5044;-53
2023/11/21 07:39:36;;;;;;;;;;;;;;;;;;5064142;28;5072;-54
2023/11/21 07:42:02;;;;;;;;;;;;;;;;;;5060961;28;1132;-53
2023/11/21 07:44:28;;;;;;;;;;;;;;;;;;5046210;28;4966;-53
2023/11/21 07:46:57;;;;;;;;;;;;;;;;;;5027479;28;5116;-54
2023/11/21 07:49:23;;;;;;;;;;;;;;;;;;5052103;28;5061;-53
2023/11/21 07:51:49;;;;;;;;;;;;;;;;;;5058812;28;5304;-51
2023/11/21 07:54:14;;;;;;;;;;;;;;;;;;5039087;28;4906;-53
2023/11/21 07:56:39;;;;;;;;;;;;;;;;;;5053136;28;1521;-52
2023/11/21 07:59:04;;;;;;;;;;;;;;;;;;5044958;28;5080;-52
2023/11/21 08:01:30;;;;;;;;;;;;;;;;;;5058887;28;5186;-52
2023/11/21 08:03:58;;;;;;;;;;;;;;;;;;5058700;28;5031;-50
2023/11/21 08:06:25;;;;;;;;;;;;;;;;;;5052600;28;4564;-50
2023/11/21 08:08:50;;;;;;;;;;;;;;;;;;5056640;28;1012;-51
2023/11/21 08:11:16;;;;;;;;;;;;;;;;;;5049314;28;4845;-50
2023/11/21 08:13:41;;;;;;;;;;;;;;;;;;5043820;28;4525;-52
2023/11/21 08:16:28;;;;;;;;;;;;;;;;;;5048927;28;4668;-58
2023/11/21 08:18:54;;;;;;;;;;;;;;;;;;5049796;28;5064;-53
2023/11/21 08:21:19;;;;;;;;;;;;;;;;;;5048914;28;4505;-53
2023/11/21 08:23:45;;;;;;;;;;;;;;;;;;5056253;28;1162;-51
2023/11/21 08:26:10;;;;;;;;;;;;;;;;;;5050052;28;4648;-52
2023/11/21 08:28:35;;;;;;;;;;;;;;;;;;5049388;28;5114;-53
2023/11/21 08:31:01;;;;;;;;;;;;;;;;;;5053119;28;5180;-53
2023/11/21 08:33:26;;;;;;;;;;;;;;;;;;5055186;28;5211;-52
2023/11/21 08:35:51;;;;;;;;;;;;;;;;;;5062439;28;1136;-53
2023/11/21 08:38:17;;;;;;;;;;;;;;;;;;5053109;28;4446;-55
2023/11/21 08:40:43;;;;;;;;;;;;;;;;;;5047818;28;4868;-53
2023/11/21 08:43:09;;;;;;;;;;;;;;;;;;5047703;28;4812;-54
2023/11/21 08:45:34;;;;;;;;;;;;;;;;;;5043287;28;4937;-52
2023/11/21 08:48:00;;;;;;;;;;;;;;;;;;5069303;28;2432;-51
2023/11/21 08:50:25;;;;;;;;;;;;;;;;;;5061426;28;4963;-52
2023/11/21 08:52:51;;;;;;;;;;;;;;;;;;5045799;28;5084;-50
2023/11/21 08:55:16;;;;;;;;;;;;;;;;;;5045024;28;5179;-51
2023/11/21 08:57:43;;;;;;;;;;;;;;;;;;5052339;28;4633;-52
2023/11/21 09:00:12;;;;;;;;;;;;;;;;;;5061746;28;5222;-51
2023/11/21 09:02:38;;;;;;;;;;;;;;;;;;5041847;28;1048;-51
2023/11/21 09:05:04;;;;;;;;;;;;;;;;;;5059794;28;4993;-54
2023/11/21 09:07:30;;;;;;;;;;;;;;;;;;5046373;28;5053;-51
2023/11/21 09:09:55;;;;;;;;;;;;;;;;;;5061530;28;4653;-51
2023/11/21 09:12:21;;;;;;;;;;;;;;;;;;5059781;28;5104;-50
2023/11/21 09:14:46;;;;;;;;;;;;;;;;;;5052337;28;1611;-53
2023/11/21 09:17:12;;;;;;;;;;;;;;;;;;5050441;28;5154;-50
2023/11/21 09:19:37;;;;;;;;;;;;;;;;;;5063912;28;4458;-53
2023/11/21 09:22:03;;;;;;;;;;;;;;;;;;5060106;28;4518;-54
2023/11/21 09:24:28;;;;;;;;;;;;;;;;;;5049036;28;4538;-51
2023/11/21 09:26:54;;;;;;;;;;;;;;;;;;5037382;28;1426;-53
2023/11/21 09:29:20;;;;;;;;;;;;;;;;;;5061861;28;5041;-52
2023/11/21 09:31:45;;;;;;;;;;;;;;;;;;5032991;28;5025;-56
2023/11/21 09:34:11;;;;;;;;;;;;;;;;;;5048597;28;4958;-53
2023/11/21 09:36:39;;;;;;;;;;;;;;;;;;5031201;28;5043;-51
2023/11/21 09:39:07;;;;;;;;;;;;;;;;;;5030461;28;1957;-53
2023/11/21 09:41:46;;;;;;;;;;;;;;;;;;5052047;28;4867;-53
2023/11/21 09:44:13;;;;;;;;;;;;;;;;;;5058655;28;5300;-52
2023/11/21 09:46:53;;;;;;;;;;;;;;;;;;5073114;28;4967;-53
2023/11/21 09:49:19;;;;;;;;;;;;;;;;;;5049385;28;4608;-52
2023/11/21 09:51:44;;;;;;;;;;;;;;;;;;5015145;28;5642;-54
2023/11/21 09:54:11;;;;;;;;;;;;;;;;;;5057177;28;5055;-54
2023/11/21 09:56:37;;;;;;;;;;;;;;;;;;5037812;28;1474;-54
2023/11/21 09:59:06;;;;;;;;;;;;;;;;;;5058574;28;5125;-52
2023/11/21 10:01:32;;;;;;;;;;;;;;;;;;5054511;28;4536;-51
2023/11/21 10:03:57;;;;;;;;;;;;;;;;;;5031819;28;4693;-54
2023/11/21 10:06:25;;;;;;;;;;;;;;;;;;5049525;28;5034;-54
2023/11/21 10:08:51;;;;;;;;;;;;;;;;;;5031664;28;1349;-54
2023/11/21 10:11:16;;;;;;;;;;;;;;;;;;5056594;28;5062;-50
2023/11/21 10:13:41;;;;;;;;;;;;;;;;;;5050792;28;4439;-54
2023/11/21 10:16:07;;;;;;;;;;;;;;;;;;5034533;28;5048;-52
2023/11/21 10:18:34;;;;;;;;;;;;;;;;;;5059065;28;5102;-51
2023/11/21 10:20:59;;;;;;;;;;;;;;;;;;5052138;28;1914;-53
2023/11/21 10:23:25;;;;;;;;;;;;;;;;;;5045094;28;4788;-50
2023/11/21 10:25:54;;;;;;;;;;;;;;;;;;5068688;28;4882;-53
2023/11/21 10:28:20;;;;;;;;;;;;;;;;;;5066096;28;4776;-55
2023/11/21 10:30:46;;;;;;;;;;;;;;;;;;5027573;28;5230;-53
2023/11/21 10:33:11;;;;;;;;;;;;;;;;;;5029767;28;5065;-54
2023/11/21 10:35:54;;;;;;;;;;;;;;;;;;5053762;28;1137;-53
2023/11/21 10:38:22;;;;;;;;;;;;;;;;;;5059066;28;4981;-53
2023/11/21 10:40:49;;;;;;;;;;;;;;;;;;5057277;28;4626;-52
2023/11/21 10:43:17;;;;;;;;;;;;;;;;;;5057137;28;4496;-51
2023/11/21 10:45:42;;;;;;;;;;;;;;;;;;5031292;28;4651;-53
2023/11/21 10:48:08;;;;;;;;;;;;;;;;;;5059197;28;5049;-53
2023/11/21 10:50:34;;;;;;;;;;;;;;;;;;5046098;28;1389;-50
2023/11/21 10:53:02;;;;;;;;;;;;;;;;;;5051246;28;5136;-51
2023/11/21 10:55:27;;;;;;;;;;;;;;;;;;5038461;28;5590;-53
2023/11/21 10:57:53;;;;;;;;;;;;;;;;;;5060416;28;4490;-52
2023/11/21 11:00:21;;;;;;;;;;;;;;;;;;5055174;28;4754;-54
2023/11/21 11:02:51;;;;;;;;;;;;;;;;;;5040512;28;1172;-52
2023/11/21 11:05:18;;;;;;;;;;;;;;;;;;5045048;28;4969;-52
2023/11/21 11:07:43;;;;;;;;;;;;;;;;;;5045434;28;4934;-53
2023/11/21 11:10:14;;;;;;;;;;;;;;;;;;5066844;28;5004;-54
2023/11/21 11:12:39;;;;;;;;;;;;;;;;;;5047413;28;4545;-51
2023/11/21 11:15:05;;;;;;;;;;;;;;;;;;5045874;28;1233;-52
2023/11/21 11:17:32;;;;;;;;;;;;;;;;;;5045696;28;5026;-53
2023/11/21 11:19:57;;;;;;;;;;;;;;;;;;5032253;28;4645;-49
2023/11/21 11:22:37;;;;;;;;;;;;;;;;;;5056119;28;5059;-49
2023/11/21 11:25:17;;;;;;;;;;;;;;;;;;5041252;28;4622;-51
2023/11/21 11:28:01;;;;;;;;;;;;;;;;;;5052842;28;4611;-53
2023/11/21 11:30:38;;;;;;;;;;;;;;;;;;5051129;28;5071;-53
2023/11/21 11:33:07;;;;;;;;;;;;;;;;;;5059460;28;1227;-52
2023/11/21 11:35:32;;;;;;;;;;;;;;;;;;5043563;28;6378;-51
2023/11/21 11:37:57;;;;;;;;;;;;;;;;;;5053267;28;4924;-51
2023/11/21 11:40:25;;;;;;;;;;;;;;;;;;5040039;28;4673;-53
2023/11/21 11:42:58;;;;;;;;;;;;;;;;;;5034689;28;4661;-52
2023/11/21 11:45:23;;;;;;;;;;;;;;;;;;5049313;28;4713;-52
2023/11/21 11:47:48;;;;;;;;;;;;;;;;;;5049901;28;1505;-53
2023/11/21 11:50:16;;;;;;;;;;;;;;;;;;5045859;28;5133;-51
2023/11/21 11:52:45;;;;;;;;;;;;;;;;;;5045176;28;5192;-56
2023/11/21 11:55:11;;;;;;;;;;;;;;;;;;5046631;28;5021;-57
2023/11/21 11:57:38;;;;;;;;;;;;;;;;;;5040411;28;4507;-52
2023/11/21 12:00:09;;;;;;;;;;;;;;;;;;5055785;28;2380;-52
2023/11/21 12:02:35;;;;;;;;;;;;;;;;;;5053135;28;5435;-50
2023/11/21 12:05:00;;;;;;;;;;;;;;;;;;5062312;28;4840;-53
2023/11/21 12:07:38;;;;;;;;;;;;;;;;;;5069426;28;5266;-52
2023/11/21 12:10:05;;;;;;;;;;;;;;;;;;5053340;28;4724;-54
2023/11/21 12:12:32;;;;;;;;;;;;;;;;;;5044175;28;5226;-53
2023/11/21 12:14:58;;;;;;;;;;;;;;;;;;5044866;28;1327;-54
2023/11/21 12:17:23;;;;;;;;;;;;;;;;;;5031600;28;5007;-51
2023/11/21 12:19:52;;;;;;;;;;;;;;;;;;5030261;28;4667;-50
2023/11/21 12:22:18;;;;;;;;;;;;;;;;;;5017612;28;4582;-49
2023/11/21 12:24:43;;;;;;;;;;;;;;;;;;5030588;28;5146;-52
2023/11/21 12:27:09;;;;;;;;;;;;;;;;;;5053639;28;5084;-49
2023/11/21 12:29:34;;;;;;;;;;;;;;;;;;5066401;28;4803;-52
2023/11/21 12:31:59;;;;;;;;;;;;;;;;;;5063693;28;4665;-52
2023/11/21 12:34:25;;;;;;;;;;;;;;;;;;5050599;28;5293;-52
2023/11/21 12:36:51;;;;;;;;;;;;;;;;;;5057252;28;4466;-53
2023/11/21 12:39:16;;;;;;;;;;;;;;;;;;5026524;28;4624;-57
2023/11/21 12:41:42;;;;;;;;;;;;;;;;;;5054310;28;1921;-53
2023/11/21 12:44:15;;;;;;;;;;;;;;;;;;5037818;28;5134;-53
2023/11/21 12:46:41;;;;;;;;;;;;;;;;;;5059173;28;5054;-55
2023/11/21 12:49:07;;;;;;;;;;;;;;;;;;5041547;28;5093;-52
2023/11/21 12:51:33;;;;;;;;;;;;;;;;;;5061127;28;5086;-55
2023/11/21 12:53:58;;;;;;;;;;;;;;;;;;5036068;28;1430;-50
2023/11/21 12:56:24;;;;;;;;;;;;;;;;;;5038262;28;4978;-52
2023/11/21 12:58:51;;;;;;;;;;;;;;;;;;5043170;28;5079;-51
2023/11/21 13:01:18;;;;;;;;;;;;;;;;;;5036120;28;4545;-54
2023/11/21 13:03:48;;;;;;;;;;;;;;;;;;5052184;28;4450;-52
2023/11/21 13:06:13;;;;;;;;;;;;;;;;;;5044683;28;4438;-53
2023/11/21 13:08:39;;;;;;;;;;;;;;;;;;5034045;28;1475;-54
2023/11/21 13:11:05;;;;;;;;;;;;;;;;;;5054611;28;4936;-51
2023/11/21 13:13:31;;;;;;;;;;;;;;;;;;5064102;28;4593;-54
2023/11/21 13:16:00;;;;;;;;;;;;;;;;;;5057689;28;4542;-54
2023/11/21 13:18:26;;;;;;;;;;;;;;;;;;5031700;28;4642;-51
2023/11/21 13:20:52;;;;;;;;;;;;;;;;;;5066441;28;1906;-52
2023/11/21 13:23:18;;;;;;;;;;;;;;;;;;5040539;28;4931;-54
2023/11/21 13:25:45;;;;;;;;;;;;;;;;;;5036828;28;5137;-55
2023/11/21 13:28:10;;;;;;;;;;;;;;;;;;5058865;28;5344;-51
2023/11/21 13:30:36;;;;;;;;;;;;;;;;;;5063965;28;5220;-54
2023/11/21 13:33:01;;;;;;;;;;;;;;;;;;5053395;28;1153;-54
2023/11/21 13:35:35;;;;;;;;;;;;;;;;;;5009550;28;5132;-53
2023/11/21 13:38:10;;;;;;;;;;;;;;;;;;5049664;28;4801;-54
2023/11/21 13:40:46;;;;;;;;;;;;;;;;;;5045773;28;4887;-54
2023/11/21 13:43:15;;;;;;;;;;;;;;;;;;5063519;28;4462;-54
2023/11/21 13:45:40;;;;;;;;;;;;;;;;;;5051483;28;4990;-55
2023/11/21 13:48:10;;;;;;;;;;;;;;;;;;5045269;28;4607;-52
2023/11/21 13:50:35;;;;;;;;;;;;;;;;;;5065756;28;1201;-54
2023/11/21 13:53:22;;;;;;;;;;;;;;;;;;5059353;28;4429;-53
2023/11/21 13:55:49;;;;;;;;;;;;;;;;;;5026378;28;5354;-53
2023/11/21 13:58:19;;;;;;;;;;;;;;;;;;5063299;28;5142;-53
2023/11/21 14:00:45;;;;;;;;;;;;;;;;;;5059232;28;5257;-52
2023/11/21 14:03:18;;;;;;;;;;;;;;;;;;5044266;28;4998;-52
2023/11/21 14:05:46;;;;;;;;;;;;;;;;;;5055005;28;1051;-53
2023/11/21 14:08:16;;;;;;;;;;;;;;;;;;5054014;28;5157;-50
2023/11/21 14:10:43;;;;;;;;;;;;;;;;;;5056865;28;5292;-51
2023/11/21 14:13:10;;;;;;;;;;;;;;;;;;5035159;28;5851;-52
2023/11/21 14:15:38;;;;;;;;;;;;;;;;;;5050405;28;4540;-55
2023/11/21 14:18:07;;;;;;;;;;;;;;;;;;5036241;28;1105;-53
2023/11/21 14:20:36;;;;;;;;;;;;;;;;;;5019855;28;7350;-53
2023/11/21 14:23:01;;;;;;;;;;;;;;;;;;5026938;28;4999;-53
2023/11/21 14:25:26;;;;;;;;;;;;;;;;;;5024472;28;4518;-52
2023/11/21 14:27:52;;;;;;;;;;;;;;;;;;5031164;28;5173;-53
2023/11/21 14:30:19;;;;;;;;;;;;;;;;;;5033118;28;4797;-56
2023/11/21 14:32:45;;;;;;;;;;;;;;;;;;5030645;28;1205;-54
2023/11/21 14:35:10;;;;;;;;;;;;;;;;;;5042339;28;4815;-53
2023/11/21 14:37:35;;;;;;;;;;;;;;;;;;5043655;28;5059;-53
2023/11/21 14:40:01;;;;;;;;;;;;;;;;;;5027188;28;4514;-52
2023/11/21 14:42:29;;;;;;;;;;;;;;;;;;5028001;28;4572;-50
2023/11/21 14:45:00;;;;;;;;;;;;;;;;;;5028864;28;1111;-52
2023/11/21 14:47:26;;;;;;;;;;;;;;;;;;5031719;28;4457;-51
2023/11/21 14:49:56;;;;;;;;;;;;;;;;;;5025811;28;5097;-51
2023/11/21 14:52:32;;;;;;;;;;;;;;;;;;5033629;28;5119;-56
2023/11/21 14:58:38;;;;;;;;;;;;;;;;;;5035736;28;4785;-56
2023/11/21 15:04:38;;;;;;;;;;;;;;;;;;5042587;28;5319;-56
2023/11/21 15:07:04;;;;;;;;;;;;;;;;;;5044726;28;5057;-56
2023/11/21 15:12:00;;;;;;;;;;;;;;;;;;5038868;28;3016;-59
2023/11/21 15:14:31;;;;;;;;;;;;;;;;;;5042247;28;4411;-56
2023/11/21 15:17:26;;;;;;;;;;;;;;;;;;5062583;28;5257;-52
2023/11/21 15:26:15;;;;;;;;;;;;;;;;;;5061610;28;4449;-53
2023/11/21 15:28:40;;;;;;;;;;;;;;;;;;5050985;28;4543;-54
2023/11/21 15:31:07;;;;;;;;;;;;;;;;;;5055371;28;4978;-52
2023/11/21 15:33:32;;;;;;;;;;;;;;;;;;5054792;28;5030;-53
2023/11/21 15:35:58;;;;;;;;;;;;;;;;;;5052397;28;4589;-53
2023/11/21 15:38:23;;;;;;;;;;;;;;;;;;5058494;28;5088;-53
2023/11/21 15:40:50;;;;;;;;;;;;;;;;;;5033348;28;5202;-54
2023/11/21 15:43:15;;;;;;;;;;;;;;;;;;5065134;28;5454;-52
2023/11/21 15:45:40;;;;;;;;;;;;;;;;;;5056512;28;4467;-49
2023/11/21 15:48:06;;;;;;;;;;;;;;;;;;5070229;28;4861;-53
2023/11/21 15:50:31;;;;;;;;;;;;;;;;;;5041641;28;1136;-49
2023/11/21 15:52:57;;;;;;;;;;;;;;;;;;5050071;28;5049;-53
2023/11/21 15:55:23;;;;;;;;;;;;;;;;;;5046890;28;5015;-52
2023/11/21 15:57:49;;;;;;;;;;;;;;;;;;5063073;28;5063;-53
2023/11/21 16:00:19;;;;;;;;;;;;;;;;;;5057216;28;5156;-53
2023/11/21 16:02:45;;;;;;;;;;;;;;;;;;5051602;28;1322;-51
2023/11/21 16:05:13;;;;;;;;;;;;;;;;;;5036994;28;4996;-52
2023/11/21 16:07:40;;;;;;;;;;;;;;;;;;5037071;28;5044;-52
2023/11/21 16:10:07;;;;;;;;;;;;;;;;;;5051406;28;5042;-51
2023/11/21 16:12:32;;;;;;;;;;;;;;;;;;5062512;28;5106;-56
2023/11/21 16:14:57;;;;;;;;;;;;;;;;;;5052757;28;1344;-53
2023/11/21 16:17:23;;;;;;;;;;;;;;;;;;5057643;28;4987;-51
2023/11/21 16:19:48;;;;;;;;;;;;;;;;;;5056545;28;4437;-52
2023/11/21 16:22:13;;;;;;;;;;;;;;;;;;5061433;28;5242;-52
2023/11/21 16:24:38;;;;;;;;;;;;;;;;;;5060710;28;4980;-53
2023/11/21 16:27:05;;;;;;;;;;;;;;;;;;5063937;28;1267;-52
2023/11/21 16:29:33;;;;;;;;;;;;;;;;;;5034868;28;4839;-51
2023/11/21 16:32:00;;;;;;;;;;;;;;;;;;5064636;28;5172;-53
2023/11/21 16:34:26;;;;;;;;;;;;;;;;;;5056378;28;5047;-53
2023/11/21 16:36:52;;;;;;;;;;;;;;;;;;5051304;28;5092;-52
2023/11/21 16:39:19;;;;;;;;;;;;;;;;;;5057411;28;4877;-53
2023/11/21 16:41:44;;;;;;;;;;;;;;;;;;5048868;28;1974;-53
2023/11/21 16:44:14;;;;;;;;;;;;;;;;;;5014554;28;4996;-56
2023/11/21 16:46:39;;;;;;;;;;;;;;;;;;5024048;28;4493;-54
2023/11/21 16:49:05;;;;;;;;;;;;;;;;;;5044190;28;4664;-54
2023/11/21 16:51:31;;;;;;;;;;;;;;;;;;5032112;28;4465;-51
2023/11/21 16:53:56;;;;;;;;;;;;;;;;;;5057799;28;1410;-53
2023/11/21 16:56:21;;;;;;;;;;;;;;;;;;5059267;28;5020;-52
2023/11/21 16:58:47;;;;;;;;;;;;;;;;;;5060099;28;4519;-54
2023/11/21 17:01:12;;;;;;;;;;;;;;;;;;5059434;28;5131;-54
2023/11/21 17:03:37;;;;;;;;;;;;;;;;;;5057767;28;4447;-52
2023/11/21 17:06:26;;;;;;;;;;;;;;;;;;5035250;28;1035;-54
2023/11/21 17:09:00;;;;;;;;;;;;;;;;;;5048346;28;4987;-51
2023/11/21 17:11:26;;;;;;;;;;;;;;;;;;5048568;28;4980;-58
2023/11/21 17:13:51;;;;;;;;;;;;;;;;;;5033951;28;4471;-52
2023/11/21 17:16:16;;;;;;;;;;;;;;;;;;5053089;28;5012;-54
2023/11/21 17:18:42;;;;;;;;;;;;;;;;;;5060684;28;4478;-54
2023/11/21 17:21:08;;;;;;;;;;;;;;;;;;5050227;28;5090;-57
2023/11/21 17:23:34;;;;;;;;;;;;;;;;;;5045765;28;1137;-54
2023/11/21 17:25:59;;;;;;;;;;;;;;;;;;5050974;28;5084;-52
2023/11/21 17:28:37;;;;;;;;;;;;;;;;;;5062861;28;5132;-52